La Cocha, Argentina
Current Conditions -  °F | °C
As of 8:00 PM on Sunday 21 Dec 2014 (Local Time) from SANT Reporting Station
Broken Clouds Broken Clouds  
Wind Chill: 19°   Ceiling: 4500
Heat Index: 19°   Visibility: 6mi
Dew Point: 12°   Wind: 6mph
Humidity: 64%   Direction: 230°SW
Pressure: 29.91"   Gusts: NA
Location:  27.8°S, 65.57°W
Report Text: SANT 212300Z 23005KT 9999 BKN045 BKN10019/12 Q1013
Loading
Personal Weather Stations






























Interactive Weather Map New forecast layout! Learn more

10-Day Weather Forecast

Advertisements
Track Severe Weather on mobile